sensor_id;sensor_type;location;lat;lon;timestamp;temperature;humidity
1812;DHT22;904;47.814;11.134;2023-02-08T00:01:11;-1.90;50.60
1812;DHT22;904;47.814;11.134;2023-02-08T00:03:39;-2.00;50.60
1812;DHT22;904;47.814;11.134;2023-02-08T00:06:09;-2.00;50.50
1812;DHT22;904;47.814;11.134;2023-02-08T00:08:39;-2.10;50.90
1812;DHT22;904;47.814;11.134;2023-02-08T00:11:09;-2.10;51.30
1812;DHT22;904;47.814;11.134;2023-02-08T00:13:39;-2.20;51.50
1812;DHT22;904;47.814;11.134;2023-02-08T00:16:10;-2.20;51.80
1812;DHT22;904;47.814;11.134;2023-02-08T00:18:38;-2.20;51.10
1812;DHT22;904;47.814;11.134;2023-02-08T00:21:09;-2.30;50.60
1812;DHT22;904;47.814;11.134;2023-02-08T00:23:37;-2.40;50.90
1812;DHT22;904;47.814;11.134;2023-02-08T00:26:05;-2.40;51.10
1812;DHT22;904;47.814;11.134;2023-02-08T00:28:35;-2.40;51.60
1812;DHT22;904;47.814;11.134;2023-02-08T00:31:05;-2.40;51.50
1812;DHT22;904;47.814;11.134;2023-02-08T00:33:35;-2.40;51.50
1812;DHT22;904;47.814;11.134;2023-02-08T00:36:04;-2.50;51.60
1812;DHT22;904;47.814;11.134;2023-02-08T00:38:32;-2.40;51.80
1812;DHT22;904;47.814;11.134;2023-02-08T00:41:01;-2.40;51.80
1812;DHT22;904;47.814;11.134;2023-02-08T00:43:29;-2.40;51.70
1812;DHT22;904;47.814;11.134;2023-02-08T00:45:59;-2.40;51.90
1812;DHT22;904;47.814;11.134;2023-02-08T00:48:32;-2.50;52.00
1812;DHT22;904;47.814;11.134;2023-02-08T00:51:00;-2.50;52.40
1812;DHT22;904;47.814;11.134;2023-02-08T00:53:27;-2.50;52.50
1812;DHT22;904;47.814;11.134;2023-02-08T00:55:55;-2.50;52.50
1812;DHT22;904;47.814;11.134;2023-02-08T00:58:23;-2.50;52.90
1812;DHT22;904;47.814;11.134;2023-02-08T01:00:50;-2.50;53.20
1812;DHT22;904;47.814;11.134;2023-02-08T01:03:20;-2.50;52.50
1812;DHT22;904;47.814;11.134;2023-02-08T01:05:48;-2.50;52.20
1812;DHT22;904;47.814;11.134;2023-02-08T01:08:18;-2.60;52.30
1812;DHT22;904;47.814;11.134;2023-02-08T01:10:46;-2.60;52.60
1812;DHT22;904;47.814;11.134;2023-02-08T01:13:13;-2.60;52.60
1812;DHT22;904;47.814;11.134;2023-02-08T01:15:41;-2.60;52.70
1812;DHT22;904;47.814;11.134;2023-02-08T01:18:08;-2.70;52.80
1812;DHT22;904;47.814;11.134;2023-02-08T01:20:36;-2.70;52.70
1812;DHT22;904;47.814;11.134;2023-02-08T01:23:05;-2.80;52.60
1812;DHT22;904;47.814;11.134;2023-02-08T01:25:32;-2.80;52.60
1812;DHT22;904;47.814;11.134;2023-02-08T01:28:01;-2.80;52.60
1812;DHT22;904;47.814;11.134;2023-02-08T01:30:28;-2.80;52.70
1812;DHT22;904;47.814;11.134;2023-02-08T01:32:55;-2.90;52.70
1812;DHT22;904;47.814;11.134;2023-02-08T01:35:27;-2.90;53.50
1812;DHT22;904;47.814;11.134;2023-02-08T01:37:54;-3.00;53.80
1812;DHT22;904;47.814;11.134;2023-02-08T01:40:22;-3.00;53.90
1812;DHT22;904;47.814;11.134;2023-02-08T01:42:49;-3.00;54.00
1812;DHT22;904;47.814;11.134;2023-02-08T01:45:23;-2.90;54.00
1812;DHT22;904;47.814;11.134;2023-02-08T01:47:54;-2.90;54.10
1812;DHT22;904;47.814;11.134;2023-02-08T01:50:25;-3.00;54.00
1812;DHT22;904;47.814;11.134;2023-02-08T01:52:56;-3.00;53.80
1812;DHT22;904;47.814;11.134;2023-02-08T01:55:27;-3.00;53.70
1812;DHT22;904;47.814;11.134;2023-02-08T01:57:58;-3.00;53.60
1812;DHT22;904;47.814;11.134;2023-02-08T02:00:26;-3.00;53.80
1812;DHT22;904;47.814;11.134;2023-02-08T02:02:56;-3.10;53.60
1812;DHT22;904;47.814;11.134;2023-02-08T02:05:27;-3.10;53.60
1812;DHT22;904;47.814;11.134;2023-02-08T02:07:56;-3.10;53.80
1812;DHT22;904;47.814;11.134;2023-02-08T02:10:27;-3.10;53.90
1812;DHT22;904;47.814;11.134;2023-02-08T02:13:03;-3.20;54.20
1812;DHT22;904;47.814;11.134;2023-02-08T02:15:31;-3.20;54.30
1812;DHT22;904;47.814;11.134;2023-02-08T02:17:59;-3.10;54.80
1812;DHT22;904;47.814;11.134;2023-02-08T02:20:35;-3.20;54.60
1812;DHT22;904;47.814;11.134;2023-02-08T02:23:42;-3.20;54.80
1812;DHT22;904;47.814;11.134;2023-02-08T02:26:52;-3.30;54.90
1812;DHT22;904;47.814;11.134;2023-02-08T02:29:38;-3.30;55.70
1812;DHT22;904;47.814;11.134;2023-02-08T02:32:30;-3.30;55.90
1812;DHT22;904;47.814;11.134;2023-02-08T02:35:06;-3.30;56.10
1812;DHT22;904;47.814;11.134;2023-02-08T02:37:44;-3.20;56.30
1812;DHT22;904;47.814;11.134;2023-02-08T02:40:20;-3.20;56.10
1812;DHT22;904;47.814;11.134;2023-02-08T02:43:00;-3.30;55.70
1812;DHT22;904;47.814;11.134;2023-02-08T02:45:54;-3.30;55.40
1812;DHT22;904;47.814;11.134;2023-02-08T02:48:29;-3.30;55.40
1812;DHT22;904;47.814;11.134;2023-02-08T02:51:00;-3.40;55.60
1812;DHT22;904;47.814;11.134;2023-02-08T02:53:33;-3.40;55.60
1812;DHT22;904;47.814;11.134;2023-02-08T02:56:07;-3.40;55.50
1812;DHT22;904;47.814;11.134;2023-02-08T02:58:39;-3.50;55.70
1812;DHT22;904;47.814;11.134;2023-02-08T03:01:06;-3.50;55.40
1812;DHT22;904;47.814;11.134;2023-02-08T03:03:35;-3.50;55.60
1812;DHT22;904;47.814;11.134;2023-02-08T03:06:04;-3.60;55.60
1812;DHT22;904;47.814;11.134;2023-02-08T03:08:51;-3.50;55.90
1812;DHT22;904;47.814;11.134;2023-02-08T03:11:23;-3.50;55.90
1812;DHT22;904;47.814;11.134;2023-02-08T03:14:00;-3.60;55.50
1812;DHT22;904;47.814;11.134;2023-02-08T03:16:35;-3.60;55.60
1812;DHT22;904;47.814;11.134;2023-02-08T03:19:16;-3.70;55.60
1812;DHT22;904;47.814;11.134;2023-02-08T03:21:51;-3.80;55.70
1812;DHT22;904;47.814;11.134;2023-02-08T03:24:28;-3.80;55.80
1812;DHT22;904;47.814;11.134;2023-02-08T03:27:03;-3.80;56.10
1812;DHT22;904;47.814;11.134;2023-02-08T03:29:39;-3.90;56.10
1812;DHT22;904;47.814;11.134;2023-02-08T03:32:10;-3.90;56.30
1812;DHT22;904;47.814;11.134;2023-02-08T03:34:46;-3.90;56.50
1812;DHT22;904;47.814;11.134;2023-02-08T03:37:19;-3.90;56.50
1812;DHT22;904;47.814;11.134;2023-02-08T03:39:49;-3.90;56.40
1812;DHT22;904;47.814;11.134;2023-02-08T03:42:20;-3.90;56.40
1812;DHT22;904;47.814;11.134;2023-02-08T03:44:53;-4.00;56.20
1812;DHT22;904;47.814;11.134;2023-02-08T03:47:24;-4.00;56.20
1812;DHT22;904;47.814;11.134;2023-02-08T03:49:56;-4.00;56.40
1812;DHT22;904;47.814;11.134;2023-02-08T03:52:25;-4.00;56.40
1812;DHT22;904;47.814;11.134;2023-02-08T03:54:57;-4.00;56.10
1812;DHT22;904;47.814;11.134;2023-02-08T03:57:28;-4.10;56.10
1812;DHT22;904;47.814;11.134;2023-02-08T03:59:59;-4.10;56.70
1812;DHT22;904;47.814;11.134;2023-02-08T04:02:28;-4.10;57.20
1812;DHT22;904;47.814;11.134;2023-02-08T04:04:59;-4.20;57.70
1812;DHT22;904;47.814;11.134;2023-02-08T04:07:27;-4.20;58.20
1812;DHT22;904;47.814;11.134;2023-02-08T04:09:54;-4.30;59.00
1812;DHT22;904;47.814;11.134;2023-02-08T04:12:21;-4.40;59.20
1812;DHT22;904;47.814;11.134;2023-02-08T04:14:49;-4.30;59.40
1812;DHT22;904;47.814;11.134;2023-02-08T04:17:16;-4.30;59.70
1812;DHT22;904;47.814;11.134;2023-02-08T04:19:43;-4.20;59.40
1812;DHT22;904;47.814;11.134;2023-02-08T04:22:11;-4.20;59.10
1812;DHT22;904;47.814;11.134;2023-02-08T04:24:38;-4.10;58.50
1812;DHT22;904;47.814;11.134;2023-02-08T04:27:05;-4.10;58.30
1812;DHT22;904;47.814;11.134;2023-02-08T04:29:32;-4.10;58.30
1812;DHT22;904;47.814;11.134;2023-02-08T04:32:01;-4.10;58.10
1812;DHT22;904;47.814;11.134;2023-02-08T04:34:29;-4.20;57.20
1812;DHT22;904;47.814;11.134;2023-02-08T04:36:56;-4.30;57.20
1812;DHT22;904;47.814;11.134;2023-02-08T04:39:25;-4.40;56.70
1812;DHT22;904;47.814;11.134;2023-02-08T04:41:52;-4.40;56.70
1812;DHT22;904;47.814;11.134;2023-02-08T04:44:19;-4.40;56.80
1812;DHT22;904;47.814;11.134;2023-02-08T04:46:46;-4.50;57.00
1812;DHT22;904;47.814;11.134;2023-02-08T04:49:19;-4.50;57.30
1812;DHT22;904;47.814;11.134;2023-02-08T04:51:46;-4.50;57.40
1812;DHT22;904;47.814;11.134;2023-02-08T04:54:13;-4.50;57.80
1812;DHT22;904;47.814;11.134;2023-02-08T04:56:42;-4.60;57.70
1812;DHT22;904;47.814;11.134;2023-02-08T04:59:09;-4.60;57.70
1812;DHT22;904;47.814;11.134;2023-02-08T05:01:36;-4.60;57.50
1812;DHT22;904;47.814;11.134;2023-02-08T05:04:03;-4.70;57.30
1812;DHT22;904;47.814;11.134;2023-02-08T05:06:30;-4.70;57.40
1812;DHT22;904;47.814;11.134;2023-02-08T05:08:58;-4.60;57.50
1812;DHT22;904;47.814;11.134;2023-02-08T05:11:25;-4.60;57.30
1812;DHT22;904;47.814;11.134;2023-02-08T05:13:55;-4.70;57.30
1812;DHT22;904;47.814;11.134;2023-02-08T05:16:24;-4.70;57.40
1812;DHT22;904;47.814;11.134;2023-02-08T05:18:51;-4.70;57.60
1812;DHT22;904;47.814;11.134;2023-02-08T05:21:18;-4.70;57.70
1812;DHT22;904;47.814;11.134;2023-02-08T05:23:48;-4.70;57.70
1812;DHT22;904;47.814;11.134;2023-02-08T05:26:15;-4.80;58.20
1812;DHT22;904;47.814;11.134;2023-02-08T05:28:43;-4.70;58.50
1812;DHT22;904;47.814;11.134;2023-02-08T05:31:14;-4.70;58.60
1812;DHT22;904;47.814;11.134;2023-02-08T05:33:42;-4.80;58.00
1812;DHT22;904;47.814;11.134;2023-02-08T05:36:09;-4.80;58.30
1812;DHT22;904;47.814;11.134;2023-02-08T05:38:39;-4.80;58.40
1812;DHT22;904;47.814;11.134;2023-02-08T05:41:06;-4.70;58.70
1812;DHT22;904;47.814;11.134;2023-02-08T05:43:33;-4.70;59.00
1812;DHT22;904;47.814;11.134;2023-02-08T05:46:05;-4.70;58.70
1812;DHT22;904;47.814;11.134;2023-02-08T05:48:34;-4.70;58.20
1812;DHT22;904;47.814;11.134;2023-02-08T05:51:01;-4.80;57.80
1812;DHT22;904;47.814;11.134;2023-02-08T05:53:28;-4.80;57.90
1812;DHT22;904;47.814;11.134;2023-02-08T05:55:56;-4.80;57.90
1812;DHT22;904;47.814;11.134;2023-02-08T05:58:23;-4.80;58.00
1812;DHT22;904;47.814;11.134;2023-02-08T06:00:51;-4.80;58.10
1812;DHT22;904;47.814;11.134;2023-02-08T06:03:18;-4.90;58.10
1812;DHT22;904;47.814;11.134;2023-02-08T06:05:46;-4.90;58.20
1812;DHT22;904;47.814;11.134;2023-02-08T06:08:13;-4.90;58.00
1812;DHT22;904;47.814;11.134;2023-02-08T06:10:41;-4.90;57.90
1812;DHT22;904;47.814;11.134;2023-02-08T06:13:08;-4.90;58.00
1812;DHT22;904;47.814;11.134;2023-02-08T06:15:35;-4.90;58.30
1812;DHT22;904;47.814;11.134;2023-02-08T06:18:06;-4.90;58.10
1812;DHT22;904;47.814;11.134;2023-02-08T06:20:33;-4.90;57.80
1812;DHT22;904;47.814;11.134;2023-02-08T06:23:02;-4.90;57.80
1812;DHT22;904;47.814;11.134;2023-02-08T06:25:29;-4.90;57.90
1812;DHT22;904;47.814;11.134;2023-02-08T06:27:56;-4.90;58.60
1812;DHT22;904;47.814;11.134;2023-02-08T06:30:24;-4.90;59.00
1812;DHT22;904;47.814;11.134;2023-02-08T06:32:53;-4.80;59.30
1812;DHT22;904;47.814;11.134;2023-02-08T06:35:20;-4.90;59.60
1812;DHT22;904;47.814;11.134;2023-02-08T06:37:47;-4.90;59.50
1812;DHT22;904;47.814;11.134;2023-02-08T06:40:16;-4.90;59.60
1812;DHT22;904;47.814;11.134;2023-02-08T06:42:44;-4.90;59.50
1812;DHT22;904;47.814;11.134;2023-02-08T06:45:12;-4.80;59.00
1812;DHT22;904;47.814;11.134;2023-02-08T06:47:39;-4.90;58.20
1812;DHT22;904;47.814;11.134;2023-02-08T06:50:07;-4.90;58.20
1812;DHT22;904;47.814;11.134;2023-02-08T06:52:37;-4.90;58.10
1812;DHT22;904;47.814;11.134;2023-02-08T06:55:05;-4.80;58.40
1812;DHT22;904;47.814;11.134;2023-02-08T06:57:33;-4.70;58.70
1812;DHT22;904;47.814;11.134;2023-02-08T07:00:00;-4.70;59.30
1812;DHT22;904;47.814;11.134;2023-02-08T07:02:27;-4.50;59.20
1812;DHT22;904;47.814;11.134;2023-02-08T07:04:55;-4.40;59.30
1812;DHT22;904;47.814;11.134;2023-02-08T07:07:31;-4.20;59.50
1812;DHT22;904;47.814;11.134;2023-02-08T07:10:03;-4.10;59.10
1812;DHT22;904;47.814;11.134;2023-02-08T07:12:35;-4.00;59.30
1812;DHT22;904;47.814;11.134;2023-02-08T07:15:03;-3.90;59.50
1812;DHT22;904;47.814;11.134;2023-02-08T07:17:30;-3.70;59.90
1812;DHT22;904;47.814;11.134;2023-02-08T07:20:05;-3.40;59.70
1812;DHT22;904;47.814;11.134;2023-02-08T07:22:32;-3.10;59.00
1812;DHT22;904;47.814;11.134;2023-02-08T07:24:59;-2.90;58.50
1812;DHT22;904;47.814;11.134;2023-02-08T07:27:28;-2.60;58.40
1812;DHT22;904;47.814;11.134;2023-02-08T07:29:58;-2.30;57.70
1812;DHT22;904;47.814;11.134;2023-02-08T07:32:28;-2.00;57.30
1812;DHT22;904;47.814;11.134;2023-02-08T07:34:58;-1.70;56.80
1812;DHT22;904;47.814;11.134;2023-02-08T07:37:26;-1.40;56.00
1812;DHT22;904;47.814;11.134;2023-02-08T07:39:53;-1.00;55.40
1812;DHT22;904;47.814;11.134;2023-02-08T07:42:21;-0.80;55.20
1812;DHT22;904;47.814;11.134;2023-02-08T07:44:53;-0.50;54.60
1812;DHT22;904;47.814;11.134;2023-02-08T07:47:26;-0.20;53.60
1812;DHT22;904;47.814;11.134;2023-02-08T07:49:58;0.10;52.90
1812;DHT22;904;47.814;11.134;2023-02-08T07:52:26;0.40;53.00
1812;DHT22;904;47.814;11.134;2023-02-08T07:54:54;0.90;52.40
1812;DHT22;904;47.814;11.134;2023-02-08T07:57:21;1.10;51.40
1812;DHT22;904;47.814;11.134;2023-02-08T07:59:55;1.50;50.90
1812;DHT22;904;47.814;11.134;2023-02-08T08:02:23;1.80;50.00
1812;DHT22;904;47.814;11.134;2023-02-08T08:04:51;2.10;49.70
1812;DHT22;904;47.814;11.134;2023-02-08T08:07:19;2.50;48.80
1812;DHT22;904;47.814;11.134;2023-02-08T08:09:46;2.70;47.80
1812;DHT22;904;47.814;11.134;2023-02-08T08:12:15;3.10;47.20
1812;DHT22;904;47.814;11.134;2023-02-08T08:14:42;3.40;46.60
1812;DHT22;904;47.814;11.134;2023-02-08T08:17:10;3.70;46.20
1812;DHT22;904;47.814;11.134;2023-02-08T08:19:37;4.00;45.50
1812;DHT22;904;47.814;11.134;2023-02-08T08:22:12;4.30;44.50
1812;DHT22;904;47.814;11.134;2023-02-08T08:24:43;4.60;44.30
1812;DHT22;904;47.814;11.134;2023-02-08T08:27:12;5.00;44.20
1812;DHT22;904;47.814;11.134;2023-02-08T08:29:42;5.40;43.40
1812;DHT22;904;47.814;11.134;2023-02-08T08:32:09;5.70;42.30
1812;DHT22;904;47.814;11.134;2023-02-08T08:34:38;6.00;41.60
1812;DHT22;904;47.814;11.134;2023-02-08T08:37:05;6.30;41.00
1812;DHT22;904;47.814;11.134;2023-02-08T08:39:47;6.60;40.50
1812;DHT22;904;47.814;11.134;2023-02-08T08:42:21;6.90;39.90
1812;DHT22;904;47.814;11.134;2023-02-08T08:44:48;7.30;38.90
1812;DHT22;904;47.814;11.134;2023-02-08T08:47:15;7.60;38.20
1812;DHT22;904;47.814;11.134;2023-02-08T08:49:42;8.00;37.50
1812;DHT22;904;47.814;11.134;2023-02-08T08:52:14;8.20;36.80
1812;DHT22;904;47.814;11.134;2023-02-08T08:54:43;8.50;36.40
1812;DHT22;904;47.814;11.134;2023-02-08T08:57:10;8.70;35.70
1812;DHT22;904;47.814;11.134;2023-02-08T08:59:42;9.00;35.10
1812;DHT22;904;47.814;11.134;2023-02-08T09:02:11;9.20;34.40
1812;DHT22;904;47.814;11.134;2023-02-08T09:04:40;9.40;33.40
1812;DHT22;904;47.814;11.134;2023-02-08T09:07:09;9.70;33.50
1812;DHT22;904;47.814;11.134;2023-02-08T09:09:37;9.90;33.00
1812;DHT22;904;47.814;11.134;2023-02-08T09:12:07;10.20;31.60
1812;DHT22;904;47.814;11.134;2023-02-08T09:14:38;10.40;31.30
1812;DHT22;904;47.814;11.134;2023-02-08T09:17:06;10.70;30.70
1812;DHT22;904;47.814;11.134;2023-02-08T09:19:38;11.00;30.20
1812;DHT22;904;47.814;11.134;2023-02-08T09:22:06;11.30;29.50
1812;DHT22;904;47.814;11.134;2023-02-08T09:24:33;11.40;29.10
1812;DHT22;904;47.814;11.134;2023-02-08T09:27:00;11.60;28.90
1812;DHT22;904;47.814;11.134;2023-02-08T09:29:33;12.00;28.70
1812;DHT22;904;47.814;11.134;2023-02-08T09:32:04;12.10;28.60
1812;DHT22;904;47.814;11.134;2023-02-08T09:34:36;12.30;28.00
1812;DHT22;904;47.814;11.134;2023-02-08T09:37:05;12.50;27.80
1812;DHT22;904;47.814;11.134;2023-02-08T09:39:34;12.60;27.90
1812;DHT22;904;47.814;11.134;2023-02-08T09:45:16;13.10;27.80
1812;DHT22;904;47.814;11.134;2023-02-08T09:47:52;13.30;27.00
1812;DHT22;904;47.814;11.134;2023-02-08T09:50:27;13.40;26.70
1812;DHT22;904;47.814;11.134;2023-02-08T09:53:02;13.60;26.50
1812;DHT22;904;47.814;11.134;2023-02-08T09:55:36;13.70;26.80
1812;DHT22;904;47.814;11.134;2023-02-08T09:58:07;13.90;26.60
1812;DHT22;904;47.814;11.134;2023-02-08T10:00:42;14.10;25.90
1812;DHT22;904;47.814;11.134;2023-02-08T10:03:20;14.20;25.10
1812;DHT22;904;47.814;11.134;2023-02-08T10:05:51;14.20;24.40
1812;DHT22;904;47.814;11.134;2023-02-08T10:08:23;13.90;24.40
1812;DHT22;904;47.814;11.134;2023-02-08T10:10:54;13.70;24.00
1812;DHT22;904;47.814;11.134;2023-02-08T10:13:35;13.80;25.70
1812;DHT22;904;47.814;11.134;2023-02-08T10:16:10;13.70;24.40
1812;DHT22;904;47.814;11.134;2023-02-08T10:18:45;13.70;24.50
1812;DHT22;904;47.814;11.134;2023-02-08T10:21:42;13.80;24.90
1812;DHT22;904;47.814;11.134;2023-02-08T10:24:42;14.10;24.70
1812;DHT22;904;47.814;11.134;2023-02-08T10:27:23;14.20;24.30
1812;DHT22;904;47.814;11.134;2023-02-08T10:30:03;14.40;24.10
1812;DHT22;904;47.814;11.134;2023-02-08T10:32:49;14.50;23.20
1812;DHT22;904;47.814;11.134;2023-02-08T10:35:27;14.30;23.00
1812;DHT22;904;47.814;11.134;2023-02-08T10:37:57;13.90;23.10
1812;DHT22;904;47.814;11.134;2023-02-08T10:40:33;13.60;23.40
1812;DHT22;904;47.814;11.134;2023-02-08T10:43:17;13.70;24.00
1812;DHT22;904;47.814;11.134;2023-02-08T10:45:53;13.80;23.80
1812;DHT22;904;47.814;11.134;2023-02-08T10:48:37;14.10;24.10
1812;DHT22;904;47.814;11.134;2023-02-08T10:51:11;14.20;22.90
1812;DHT22;904;47.814;11.134;2023-02-08T10:53:40;14.50;23.10
1812;DHT22;904;47.814;11.134;2023-02-08T10:56:17;14.50;22.30
1812;DHT22;904;47.814;11.134;2023-02-08T10:58:47;14.50;22.40
1812;DHT22;904;47.814;11.134;2023-02-08T11:01:17;14.90;23.20
1812;DHT22;904;47.814;11.134;2023-02-08T11:06:45;15.10;22.50
1812;DHT22;904;47.814;11.134;2023-02-08T11:09:21;14.30;21.90
1812;DHT22;904;47.814;11.134;2023-02-08T11:11:49;14.10;22.00
1812;DHT22;904;47.814;11.134;2023-02-08T11:14:19;14.00;22.00
1812;DHT22;904;47.814;11.134;2023-02-08T11:16:51;13.70;22.70
1812;DHT22;904;47.814;11.134;2023-02-08T11:19:32;13.40;22.70
1812;DHT22;904;47.814;11.134;2023-02-08T11:22:05;13.20;23.00
1812;DHT22;904;47.814;11.134;2023-02-08T11:24:38;13.10;23.20
1812;DHT22;904;47.814;11.134;2023-02-08T11:27:18;13.20;23.10
1812;DHT22;904;47.814;11.134;2023-02-08T11:30:16;13.30;23.20
1812;DHT22;904;47.814;11.134;2023-02-08T11:32:48;13.40;23.60
1812;DHT22;904;47.814;11.134;2023-02-08T11:35:20;13.80;23.30
1812;DHT22;904;47.814;11.134;2023-02-08T11:37:50;14.10;22.80
1812;DHT22;904;47.814;11.134;2023-02-08T11:40:22;14.30;22.80
1812;DHT22;904;47.814;11.134;2023-02-08T11:42:50;14.30;22.40
1812;DHT22;904;47.814;11.134;2023-02-08T11:45:22;14.20;21.00
1812;DHT22;904;47.814;11.134;2023-02-08T11:47:59;14.10;21.20
1812;DHT22;904;47.814;11.134;2023-02-08T11:50:34;13.90;21.20
1812;DHT22;904;47.814;11.134;2023-02-08T11:53:20;13.90;22.40
1812;DHT22;904;47.814;11.134;2023-02-08T11:56:13;14.20;21.90
1812;DHT22;904;47.814;11.134;2023-02-08T11:59:05;14.40;22.10
1812;DHT22;904;47.814;11.134;2023-02-08T12:01:54;14.40;21.90
1812;DHT22;904;47.814;11.134;2023-02-08T12:04:21;14.60;22.40
1812;DHT22;904;47.814;11.134;2023-02-08T12:07:06;14.70;21.40
1812;DHT22;904;47.814;11.134;2023-02-08T12:10:07;14.80;21.90
1812;DHT22;904;47.814;11.134;2023-02-08T12:12:52;14.90;21.90
1812;DHT22;904;47.814;11.134;2023-02-08T12:15:38;14.80;20.80
1812;DHT22;904;47.814;11.134;2023-02-08T12:21:07;14.90;20.60
1812;DHT22;904;47.814;11.134;2023-02-08T12:23:52;14.50;20.80
1812;DHT22;904;47.814;11.134;2023-02-08T12:26:44;14.60;21.60
1812;DHT22;904;47.814;11.134;2023-02-08T12:29:21;14.90;21.30
1812;DHT22;904;47.814;11.134;2023-02-08T12:32:00;14.90;20.40
1812;DHT22;904;47.814;11.134;2023-02-08T12:34:42;14.50;20.20
1812;DHT22;904;47.814;11.134;2023-02-08T12:37:18;14.10;20.20
1812;DHT22;904;47.814;11.134;2023-02-08T12:40:26;13.80;20.30
1812;DHT22;904;47.814;11.134;2023-02-08T12:43:40;13.80;20.80
1812;DHT22;904;47.814;11.134;2023-02-08T12:46:21;13.80;20.20
1812;DHT22;904;47.814;11.134;2023-02-08T12:49:23;13.40;20.20
1812;DHT22;904;47.814;11.134;2023-02-08T12:51:57;12.70;20.50
1812;DHT22;904;47.814;11.134;2023-02-08T12:54:37;12.20;21.40
1812;DHT22;904;47.814;11.134;2023-02-08T12:57:10;12.00;22.30
1812;DHT22;904;47.814;11.134;2023-02-08T12:59:42;12.00;22.90
1812;DHT22;904;47.814;11.134;2023-02-08T13:02:15;12.00;21.90
1812;DHT22;904;47.814;11.134;2023-02-08T13:04:46;12.00;22.00
1812;DHT22;904;47.814;11.134;2023-02-08T13:07:24;12.40;22.50
1812;DHT22;904;47.814;11.134;2023-02-08T13:09:56;12.80;22.60
1812;DHT22;904;47.814;11.134;2023-02-08T13:12:46;12.90;21.40
1812;DHT22;904;47.814;11.134;2023-02-08T13:15:24;12.70;21.70
1812;DHT22;904;47.814;11.134;2023-02-08T13:17:55;12.70;22.10
1812;DHT22;904;47.814;11.134;2023-02-08T13:20:30;12.80;22.10
1812;DHT22;904;47.814;11.134;2023-02-08T13:23:05;13.00;21.90
1812;DHT22;904;47.814;11.134;2023-02-08T13:25:36;12.90;21.90
1812;DHT22;904;47.814;11.134;2023-02-08T13:28:06;12.90;21.80
1812;DHT22;904;47.814;11.134;2023-02-08T13:30:38;13.00;21.90
1812;DHT22;904;47.814;11.134;2023-02-08T13:33:13;12.80;21.60
1812;DHT22;904;47.814;11.134;2023-02-08T13:35:49;12.40;21.70
1812;DHT22;904;47.814;11.134;2023-02-08T13:38:27;12.30;21.90
1812;DHT22;904;47.814;11.134;2023-02-08T13:41:04;12.20;21.60
1812;DHT22;904;47.814;11.134;2023-02-08T13:43:36;11.90;22.20
1812;DHT22;904;47.814;11.134;2023-02-08T13:46:05;11.80;22.80
1812;DHT22;904;47.814;11.134;2023-02-08T13:48:48;11.70;22.80
1812;DHT22;904;47.814;11.134;2023-02-08T13:54:28;11.50;23.00
1812;DHT22;904;47.814;11.134;2023-02-08T14:00:20;11.00;22.80
1812;DHT22;904;47.814;11.134;2023-02-08T14:03:19;10.60;22.90
1812;DHT22;904;47.814;11.134;2023-02-08T14:05:51;10.10;23.30
1812;DHT22;904;47.814;11.134;2023-02-08T14:08:28;9.80;24.90
1812;DHT22;904;47.814;11.134;2023-02-08T14:11:05;9.50;24.70
1812;DHT22;904;47.814;11.134;2023-02-08T14:13:51;9.20;25.50
1812;DHT22;904;47.814;11.134;2023-02-08T14:16:32;9.00;25.70
1812;DHT22;904;47.814;11.134;2023-02-08T14:19:05;8.70;26.00
1812;DHT22;904;47.814;11.134;2023-02-08T14:21:48;8.40;26.20
1812;DHT22;904;47.814;11.134;2023-02-08T14:24:20;8.20;27.20
1812;DHT22;904;47.814;11.134;2023-02-08T14:27:05;7.90;27.80
1812;DHT22;904;47.814;11.134;2023-02-08T14:29:34;7.70;28.40
1812;DHT22;904;47.814;11.134;2023-02-08T14:32:04;7.60;28.70
1812;DHT22;904;47.814;11.134;2023-02-08T14:34:34;7.50;28.00
1812;DHT22;904;47.814;11.134;2023-02-08T14:43:38;6.60;29.50
1812;DHT22;904;47.814;11.134;2023-02-08T14:46:42;6.40;30.50
1812;DHT22;904;47.814;11.134;2023-02-08T14:49:12;6.20;31.30
1812;DHT22;904;47.814;11.134;2023-02-08T14:51:45;5.70;31.70
1812;DHT22;904;47.814;11.134;2023-02-08T14:54:20;5.40;32.70
1812;DHT22;904;47.814;11.134;2023-02-08T14:56:53;5.10;33.20
1812;DHT22;904;47.814;11.134;2023-02-08T14:59:25;5.00;33.90
1812;DHT22;904;47.814;11.134;2023-02-08T15:01:58;4.80;33.90
1812;DHT22;904;47.814;11.134;2023-02-08T15:04:29;4.60;34.10
1812;DHT22;904;47.814;11.134;2023-02-08T15:07:16;4.50;33.90
1812;DHT22;904;47.814;11.134;2023-02-08T15:09:45;4.40;34.50
1812;DHT22;904;47.814;11.134;2023-02-08T15:12:19;4.30;34.50
1812;DHT22;904;47.814;11.134;2023-02-08T15:14:48;4.30;34.80
1812;DHT22;904;47.814;11.134;2023-02-08T15:17:20;4.20;35.20
1812;DHT22;904;47.814;11.134;2023-02-08T15:20:01;4.10;35.70
1812;DHT22;904;47.814;11.134;2023-02-08T15:22:36;3.80;36.20
1812;DHT22;904;47.814;11.134;2023-02-08T15:25:20;3.70;37.30
1812;DHT22;904;47.814;11.134;2023-02-08T15:27:49;3.70;36.80
1812;DHT22;904;47.814;11.134;2023-02-08T15:30:23;3.60;37.50
1812;DHT22;904;47.814;11.134;2023-02-08T15:32:52;3.60;37.80
1812;DHT22;904;47.814;11.134;2023-02-08T15:35:23;3.60;38.20
1812;DHT22;904;47.814;11.134;2023-02-08T15:37:54;3.70;37.90
1812;DHT22;904;47.814;11.134;2023-02-08T15:40:26;3.60;38.10
1812;DHT22;904;47.814;11.134;2023-02-08T15:42:55;3.60;38.60
1812;DHT22;904;47.814;11.134;2023-02-08T15:45:28;3.50;38.50
1812;DHT22;904;47.814;11.134;2023-02-08T15:48:03;3.40;38.60
1812;DHT22;904;47.814;11.134;2023-02-08T15:50:32;3.30;38.80
1812;DHT22;904;47.814;11.134;2023-02-08T15:53:03;3.20;39.00
1812;DHT22;904;47.814;11.134;2023-02-08T15:55:34;3.20;39.50
1812;DHT22;904;47.814;11.134;2023-02-08T15:58:04;3.20;39.50
1812;DHT22;904;47.814;11.134;2023-02-08T16:00:34;3.20;39.70
1812;DHT22;904;47.814;11.134;2023-02-08T16:03:17;3.20;39.90
1812;DHT22;904;47.814;11.134;2023-02-08T16:05:49;3.20;40.60
1812;DHT22;904;47.814;11.134;2023-02-08T16:08:23;3.20;40.50
1812;DHT22;904;47.814;11.134;2023-02-08T16:10:55;3.20;40.30
1812;DHT22;904;47.814;11.134;2023-02-08T16:13:26;3.10;40.50
1812;DHT22;904;47.814;11.134;2023-02-08T16:16:14;3.00;40.60
1812;DHT22;904;47.814;11.134;2023-02-08T16:18:46;2.90;40.90
1812;DHT22;904;47.814;11.134;2023-02-08T16:21:28;2.80;41.20
1812;DHT22;904;47.814;11.134;2023-02-08T16:24:02;2.70;41.40
1812;DHT22;904;47.814;11.134;2023-02-08T16:26:34;2.60;41.80
1812;DHT22;904;47.814;11.134;2023-02-08T16:29:05;2.60;42.10
1812;DHT22;904;47.814;11.134;2023-02-08T16:31:40;2.60;42.20
1812;DHT22;904;47.814;11.134;2023-02-08T16:34:17;2.50;42.40
1812;DHT22;904;47.814;11.134;2023-02-08T16:36:47;2.50;42.60
1812;DHT22;904;47.814;11.134;2023-02-08T16:39:34;2.50;42.60
1812;DHT22;904;47.814;11.134;2023-02-08T16:42:04;2.50;43.10
1812;DHT22;904;47.814;11.134;2023-02-08T16:44:37;2.50;43.40
1812;DHT22;904;47.814;11.134;2023-02-08T16:47:25;2.40;43.50
1812;DHT22;904;47.814;11.134;2023-02-08T16:49:54;2.40;43.80
1812;DHT22;904;47.814;11.134;2023-02-08T16:52:26;2.30;43.90
1812;DHT22;904;47.814;11.134;2023-02-08T16:54:57;2.30;44.00
1812;DHT22;904;47.814;11.134;2023-02-08T16:57:39;2.30;44.20
1812;DHT22;904;47.814;11.134;2023-02-08T17:00:16;2.30;44.40
1812;DHT22;904;47.814;11.134;2023-02-08T17:02:43;2.20;44.40